createdAt,value
2019-02-15T00:01:42.682Z,20.63
2019-02-15T00:04:14.008Z,19.67
2019-02-15T00:06:44.251Z,21.03
2019-02-15T00:09:14.774Z,21.90
2019-02-15T00:11:45.092Z,23.30
2019-02-15T00:14:15.338Z,21.47
2019-02-15T00:16:45.582Z,22.93
2019-02-15T00:19:20.384Z,23.50
2019-02-15T00:21:50.631Z,23.00
2019-02-15T00:24:20.884Z,22.50
2019-02-15T00:26:51.492Z,20.37
2019-02-15T00:29:21.741Z,22.13
2019-02-15T00:31:51.995Z,20.17
2019-02-15T00:34:22.237Z,19.03
2019-02-15T00:36:52.486Z,21.40
2019-02-15T00:39:22.732Z,21.67
2019-02-15T00:41:53.050Z,19.80
2019-02-15T00:44:23.303Z,18.33
2019-02-15T00:46:57.835Z,16.33
2019-02-15T00:49:30.694Z,17.00
2019-02-15T00:52:14.470Z,16.23
2019-02-15T00:54:52.253Z,16.43
2019-02-15T00:57:27.181Z,15.60
2019-02-15T01:00:14.134Z,15.33
2019-02-15T01:02:46.024Z,15.63
2019-02-15T01:05:20.600Z,15.13
2019-02-15T01:07:52.480Z,16.10
2019-02-15T01:10:24.365Z,15.53
2019-02-15T01:12:59.191Z,15.37
2019-02-15T01:15:29.441Z,16.43
2019-02-15T01:17:59.685Z,16.70
2019-02-15T01:20:29.933Z,18.13
2019-02-15T01:23:00.185Z,18.83
2019-02-15T01:25:32.064Z,16.53
2019-02-15T01:28:09.703Z,17.87
2019-02-15T01:30:57.391Z,18.03
2019-02-15T01:33:45.599Z,18.80
2019-02-15T01:36:20.661Z,16.97
2019-02-15T01:38:55.504Z,17.63
2019-02-15T01:41:27.397Z,17.93
2019-02-15T01:43:59.286Z,17.17
2019-02-15T01:46:40.563Z,18.67
2019-02-15T01:49:10.809Z,17.30
2019-02-15T01:51:41.069Z,17.67
2019-02-15T01:54:11.306Z,17.73
2019-02-15T01:56:41.560Z,19.10
2019-02-15T01:59:11.804Z,16.70
2019-02-15T02:01:42.053Z,16.60
2019-02-15T02:04:12.307Z,17.43
2019-02-15T02:06:42.652Z,16.83
2019-02-15T02:09:12.969Z,17.43
2019-02-15T02:11:43.693Z,15.70
2019-02-15T02:14:13.934Z,16.63
2019-02-15T02:16:44.182Z,17.17
2019-02-15T02:19:14.436Z,17.87
2019-02-15T02:21:44.682Z,17.40
2019-02-15T02:24:14.937Z,16.90
2019-02-15T02:26:45.181Z,16.53
2019-02-15T02:29:15.424Z,18.27
2019-02-15T02:31:45.679Z,17.40
2019-02-15T02:34:15.925Z,16.37
2019-02-15T02:36:54.272Z,17.80
2019-02-15T02:39:24.506Z,19.43
2019-02-15T02:41:54.758Z,17.10
2019-02-15T02:44:25.004Z,16.87
2019-02-15T02:46:55.253Z,18.13
2019-02-15T02:49:25.513Z,16.17
2019-02-15T02:51:55.750Z,16.20
2019-02-15T02:54:25.994Z,17.97
2019-02-15T02:56:56.243Z,17.47
2019-02-15T02:59:26.557Z,16.73
2019-02-15T03:01:57.069Z,15.80
2019-02-15T03:04:27.314Z,16.57
2019-02-15T03:06:58.739Z,16.50
2019-02-15T03:09:28.980Z,17.83
2019-02-15T03:11:59.239Z,17.37
2019-02-15T03:14:29.307Z,15.83
2019-02-15T03:16:59.564Z,17.40
2019-02-15T03:19:29.804Z,18.03
2019-02-15T03:22:00.053Z,17.17
2019-02-15T03:24:30.301Z,18.60
2019-02-15T03:27:00.643Z,16.27
2019-02-15T03:29:30.877Z,19.30
2019-02-15T03:32:01.128Z,18.63
2019-02-15T03:34:31.374Z,17.70
2019-02-15T03:37:09.393Z,18.43
2019-02-15T03:39:41.332Z,19.87
2019-02-15T03:42:13.299Z,18.77
2019-02-15T03:44:43.542Z,21.33
2019-02-15T03:47:16.505Z,21.37
2019-02-15T03:49:46.758Z,24.00
2019-02-15T03:52:17.009Z,27.90
2019-02-15T03:54:47.257Z,29.63
2019-02-15T03:57:17.503Z,26.93
2019-02-15T03:59:47.745Z,24.33
2019-02-15T04:02:17.999Z,23.07
2019-02-15T04:04:48.245Z,23.80
2019-02-15T04:07:18.498Z,21.47
2019-02-15T04:09:48.751Z,21.67
2019-02-15T04:12:19.004Z,21.93
2019-02-15T04:14:49.254Z,20.63
2019-02-15T04:17:19.502Z,23.00
2019-02-15T04:19:49.758Z,22.50
2019-02-15T04:22:20.011Z,22.83
2019-02-15T04:24:50.267Z,23.47
2019-02-15T04:27:20.499Z,21.37
2019-02-15T04:29:50.741Z,22.17
2019-02-15T04:32:21.260Z,25.10
2019-02-15T04:34:51.509Z,26.43
2019-02-15T04:37:21.757Z,25.37
2019-02-15T04:39:52.573Z,23.53
2019-02-15T04:42:22.818Z,21.93
2019-02-15T04:44:53.068Z,23.63
2019-02-15T04:47:23.318Z,23.83
2019-02-15T04:49:53.566Z,20.70
2019-02-15T04:52:23.818Z,22.80
2019-02-15T04:54:54.060Z,18.53
2019-02-15T04:57:24.310Z,18.00
2019-02-15T04:59:54.559Z,17.60
2019-02-15T05:02:24.815Z,17.03
2019-02-15T05:04:55.072Z,18.47
2019-02-15T05:07:25.318Z,18.87
2019-02-15T05:09:55.568Z,19.13
2019-02-15T05:12:27.008Z,18.87
2019-02-15T05:14:57.256Z,17.63
2019-02-15T05:17:27.533Z,18.00
2019-02-15T05:19:57.771Z,18.97
2019-02-15T05:22:28.017Z,18.30
2019-02-15T05:24:58.263Z,23.43
2019-02-15T05:27:28.528Z,24.33
2019-02-15T05:29:58.773Z,29.17
2019-02-15T05:32:29.038Z,30.97
2019-02-15T05:34:59.288Z,31.63
2019-02-15T05:37:29.531Z,29.63
2019-02-15T05:39:59.778Z,30.30
2019-02-15T05:42:30.031Z,30.10
2019-02-15T05:45:03.682Z,28.10
2019-02-15T05:47:32.339Z,27.57
2019-02-15T05:50:02.619Z,27.23
2019-02-15T05:52:32.858Z,26.50
2019-02-15T05:55:03.410Z,26.67
2019-02-15T05:57:33.648Z,25.17
2019-02-15T06:00:04.175Z,25.70
2019-02-15T06:02:34.432Z,22.87
2019-02-15T06:05:07.325Z,21.47
2019-02-15T06:07:38.452Z,21.07
2019-02-15T06:10:09.088Z,22.50
2019-02-15T06:12:39.332Z,22.00
2019-02-15T06:15:15.089Z,22.40
2019-02-15T06:17:41.559Z,22.67
2019-02-15T06:20:11.834Z,20.90
2019-02-15T06:22:42.092Z,23.20
2019-02-15T06:25:12.720Z,22.33
2019-02-15T06:27:42.987Z,24.20
2019-02-15T06:30:13.262Z,22.43
2019-02-15T06:32:43.516Z,22.67
2019-02-15T06:35:13.796Z,22.53
2019-02-15T06:37:44.453Z,21.37
2019-02-15T06:40:14.700Z,21.40
2019-02-15T06:42:45.040Z,21.83
2019-02-15T06:45:24.315Z,23.67
2019-02-15T06:47:48.328Z,23.17
2019-02-15T06:50:18.579Z,25.63
2019-02-15T06:52:48.870Z,25.23
2019-02-15T06:55:19.104Z,27.77
2019-02-15T06:57:49.368Z,31.47
2019-02-15T07:00:23.938Z,32.17
2019-02-15T07:02:55.948Z,31.60
2019-02-15T07:05:25.969Z,31.47
2019-02-15T07:07:56.246Z,31.73
2019-02-15T07:10:26.506Z,36.17
2019-02-15T07:12:56.785Z,34.77
2019-02-15T07:15:33.728Z,32.40
2019-02-15T07:18:07.850Z,31.20
2019-02-15T07:20:41.845Z,30.17
2019-02-15T07:23:13.726Z,29.20
2019-02-15T07:25:46.817Z,28.77
2019-02-15T07:28:17.074Z,27.87
2019-02-15T07:30:47.325Z,27.43
2019-02-15T07:33:17.596Z,24.55
2019-02-15T07:35:48.168Z,24.05
2019-02-15T07:38:18.600Z,25.82
2019-02-15T07:40:50.132Z,23.45
2019-02-15T07:43:20.392Z,22.13
2019-02-15T07:45:51.818Z,22.17
2019-02-15T07:48:22.113Z,24.18
2019-02-15T07:50:54.395Z,26.37
2019-02-15T07:53:24.329Z,21.52
2019-02-15T07:55:54.613Z,23.00
2019-02-15T07:58:24.880Z,22.73
2019-02-15T08:00:55.131Z,21.05
2019-02-15T08:03:25.410Z,20.70
2019-02-15T08:05:55.674Z,21.05
2019-02-15T08:08:25.934Z,19.37
2019-02-15T08:10:56.201Z,19.80
2019-02-15T08:13:26.479Z,23.42
2019-02-15T08:15:56.760Z,21.82
2019-02-15T08:18:27.008Z,21.15
2019-02-15T08:20:57.275Z,23.05
2019-02-15T08:23:27.537Z,20.77
2019-02-15T08:25:57.814Z,21.00
2019-02-15T08:28:28.084Z,20.52
2019-02-15T08:30:58.372Z,19.73
2019-02-15T08:33:28.716Z,19.73
2019-02-15T08:35:58.978Z,20.62
2019-02-15T08:38:29.250Z,19.27
2019-02-15T08:40:59.525Z,20.35
2019-02-15T08:43:29.797Z,17.85
2019-02-15T08:46:02.718Z,28.27
2019-02-15T08:48:32.290Z,21.62
2019-02-15T08:51:02.548Z,21.07
2019-02-15T08:53:32.821Z,20.57
2019-02-15T08:56:03.083Z,18.98
2019-02-15T08:58:33.339Z,17.35
2019-02-15T09:01:03.603Z,25.62
2019-02-15T09:03:34.220Z,17.15
2019-02-15T09:06:04.480Z,16.42
2019-02-15T09:08:34.733Z,16.02
2019-02-15T09:11:04.977Z,24.92
2019-02-15T09:13:35.226Z,24.40
2019-02-15T09:16:10.322Z,23.05
2019-02-15T09:18:37.430Z,19.10
2019-02-15T09:21:07.683Z,18.37
2019-02-15T09:23:37.935Z,16.57
2019-02-15T09:26:08.199Z,20.12
2019-02-15T09:28:42.770Z,17.67
2019-02-15T09:31:14.567Z,16.37
2019-02-15T09:33:44.836Z,17.73
2019-02-15T09:36:15.104Z,16.37
2019-02-15T09:38:47.047Z,16.60
2019-02-15T09:41:17.329Z,15.88
2019-02-15T09:43:47.583Z,16.73
2019-02-15T09:46:20.164Z,17.37
2019-02-15T09:48:49.773Z,17.27
2019-02-15T09:51:20.056Z,20.57
2019-02-15T09:53:50.308Z,24.35
2019-02-15T09:56:20.578Z,20.00
2019-02-15T09:58:50.830Z,20.00
2019-02-15T10:01:21.107Z,23.47
2019-02-15T10:03:51.360Z,24.02
2019-02-15T10:06:22.059Z,23.47
2019-02-15T10:08:56.867Z,23.27
2019-02-15T10:11:30.409Z,23.40
2019-02-15T10:14:01.974Z,23.63
2019-02-15T10:16:32.442Z,25.43
2019-02-15T10:19:03.866Z,26.30
2019-02-15T10:21:34.120Z,24.23
2019-02-15T10:24:05.566Z,23.97
2019-02-15T10:26:37.006Z,23.35
2019-02-15T10:29:08.461Z,22.85
2019-02-15T10:31:38.744Z,24.93
2019-02-15T10:34:09.240Z,23.00
2019-02-15T10:36:40.662Z,25.10
2019-02-15T10:39:13.050Z,23.83
2019-02-15T10:41:44.481Z,22.13
2019-02-15T10:44:15.013Z,22.83
2019-02-15T10:46:46.471Z,20.80
2019-02-15T10:49:17.924Z,26.10
2019-02-15T10:51:49.388Z,24.57
2019-02-15T10:54:21.746Z,23.87
2019-02-15T10:56:52.467Z,23.23
2019-02-15T10:59:25.549Z,25.33
2019-02-15T11:01:57.432Z,30.63
2019-02-15T11:04:27.860Z,30.30
2019-02-15T11:06:58.530Z,27.43
2019-02-15T11:09:28.791Z,22.43
2019-02-15T11:11:59.153Z,25.33
2019-02-15T11:14:29.404Z,21.93
2019-02-15T11:16:59.679Z,23.53
2019-02-15T11:19:29.949Z,28.87
2019-02-15T11:22:00.207Z,24.80
2019-02-15T11:24:30.474Z,22.37
2019-02-15T11:27:00.726Z,19.97
2019-02-15T11:29:32.149Z,22.50
2019-02-15T11:32:02.429Z,23.83
2019-02-15T11:34:32.693Z,33.23
2019-02-15T11:37:02.964Z,26.10
2019-02-15T11:39:33.255Z,35.70
2019-02-15T11:42:03.518Z,22.83
2019-02-15T11:44:33.785Z,27.90
2019-02-15T11:47:04.076Z,27.13
2019-02-15T11:49:34.387Z,25.63
2019-02-15T11:52:04.461Z,29.37
2019-02-15T11:54:34.797Z,25.60
2019-02-15T11:57:05.058Z,31.67
2019-02-15T11:59:35.334Z,27.13
2019-02-15T12:02:06.591Z,27.77
2019-02-15T12:04:37.239Z,25.83
2019-02-15T12:07:07.501Z,64.87
2019-02-15T12:09:37.762Z,45.77
2019-02-15T12:12:10.880Z,41.20
2019-02-15T12:14:39.997Z,28.33
2019-02-15T12:17:10.252Z,31.23
2019-02-15T12:19:40.512Z,26.57
2019-02-15T12:22:10.752Z,25.77
2019-02-15T12:24:41.002Z,22.70
2019-02-15T12:27:11.258Z,22.60
2019-02-15T12:29:41.518Z,22.43
2019-02-15T12:32:11.781Z,22.67
2019-02-15T12:34:43.565Z,26.83
2019-02-15T12:37:13.831Z,25.10
2019-02-15T12:39:44.078Z,23.27
2019-02-15T12:42:15.947Z,21.87
2019-02-15T12:44:46.578Z,25.67
2019-02-15T12:47:16.847Z,23.03
2019-02-15T12:49:47.096Z,28.63
2019-02-15T12:52:17.375Z,33.00
2019-02-15T12:54:47.622Z,36.07
2019-02-15T12:57:18.980Z,25.53
2019-02-15T12:59:49.237Z,24.47
2019-02-15T13:02:19.501Z,25.80
2019-02-15T13:04:49.775Z,24.80
2019-02-15T13:07:20.417Z,19.63
2019-02-15T13:09:52.023Z,27.67
2019-02-15T13:12:22.410Z,22.77
2019-02-15T13:14:52.659Z,27.43
2019-02-15T13:17:24.981Z,26.53
2019-02-15T13:19:54.869Z,35.10
2019-02-15T13:22:25.137Z,27.93
2019-02-15T13:24:55.383Z,30.40
2019-02-15T13:27:25.650Z,33.60
2019-02-15T13:29:55.918Z,33.67
2019-02-15T13:32:26.183Z,32.27
2019-02-15T13:34:56.428Z,28.93
2019-02-15T13:37:26.679Z,26.23
2019-02-15T13:39:56.931Z,27.17
2019-02-15T13:42:27.183Z,32.30
2019-02-15T13:44:58.971Z,25.73
2019-02-15T13:47:34.516Z,28.23
2019-02-15T13:50:02.779Z,23.80
2019-02-15T13:52:33.022Z,26.33
2019-02-15T13:55:03.344Z,24.50
2019-02-15T13:57:33.783Z,26.63
2019-02-15T14:00:08.776Z,23.50
2019-02-15T14:02:39.890Z,24.67
2019-02-15T14:05:16.022Z,24.83
2019-02-15T14:07:51.912Z,25.27
2019-02-15T14:10:22.279Z,25.83
2019-02-15T14:12:55.390Z,22.53
2019-02-15T14:15:25.615Z,24.13
2019-02-15T14:17:57.074Z,24.00
2019-02-15T14:20:28.523Z,24.13
2019-02-15T14:22:59.965Z,24.73
2019-02-15T14:25:31.873Z,28.77
2019-02-15T14:28:02.259Z,27.63
2019-02-15T14:30:33.715Z,24.33
2019-02-15T14:33:03.969Z,25.63
2019-02-15T14:35:34.243Z,36.17
2019-02-15T14:38:05.450Z,40.97
2019-02-15T14:40:35.726Z,33.43
2019-02-15T14:43:06.207Z,26.40
2019-02-15T14:45:36.476Z,27.43
2019-02-15T14:48:06.948Z,27.93
2019-02-15T14:50:37.213Z,25.03
2019-02-15T14:53:07.488Z,27.70
2019-02-15T14:55:39.019Z,31.10
2019-02-15T14:58:11.389Z,25.13
2019-02-15T15:00:43.422Z,31.33
2019-02-15T15:03:13.687Z,30.27
2019-02-15T15:05:46.107Z,45.43
2019-02-15T15:08:16.364Z,37.97
2019-02-15T15:10:46.621Z,39.77
2019-02-15T15:13:16.884Z,31.27
2019-02-15T15:15:47.130Z,42.87
2019-02-15T15:18:17.490Z,68.87
2019-02-15T15:20:48.916Z,35.77
2019-02-15T15:23:19.585Z,35.17
2019-02-15T15:25:53.159Z,46.53
2019-02-15T15:28:24.805Z,96.57
2019-02-15T15:30:55.077Z,73.43
2019-02-15T15:33:25.340Z,95.93
2019-02-15T15:35:56.785Z,91.30
2019-02-15T15:38:28.688Z,84.67
2019-02-15T15:41:05.336Z,51.07
2019-02-15T15:43:44.579Z,64.20
2019-02-15T15:46:16.024Z,79.60
2019-02-15T15:48:47.472Z,62.23
2019-02-15T15:51:20.761Z,51.40
2019-02-15T15:53:52.215Z,46.57
2019-02-15T15:56:23.702Z,40.03
2019-02-15T15:58:56.163Z,41.33
2019-02-15T16:01:26.603Z,29.57
2019-02-15T16:03:58.055Z,30.23
2019-02-15T16:06:29.497Z,31.47
2019-02-15T16:08:59.767Z,36.83
2019-02-15T16:11:32.446Z,37.10
2019-02-15T16:14:04.627Z,33.70
2019-02-15T16:16:39.610Z,30.57
2019-02-15T16:19:09.995Z,38.77
2019-02-15T16:21:40.348Z,37.33
2019-02-15T16:24:12.742Z,45.03
2019-02-15T16:26:42.652Z,32.63
2019-02-15T16:29:14.025Z,36.20
2019-02-15T16:31:44.631Z,41.23
2019-02-15T16:34:17.851Z,41.97
2019-02-15T16:36:49.175Z,38.80
2019-02-15T16:39:23.853Z,39.93
2019-02-15T16:41:58.239Z,39.13
2019-02-15T16:44:31.912Z,41.57
2019-02-15T16:47:02.404Z,52.33
2019-02-15T16:49:37.331Z,46.27
2019-02-15T16:52:08.830Z,44.37
2019-02-15T16:54:42.130Z,41.10
2019-02-15T16:57:15.790Z,37.67
2019-02-15T16:59:46.305Z,35.70
2019-02-15T17:02:17.442Z,33.73
2019-02-15T17:04:48.154Z,36.20
2019-02-15T17:07:18.453Z,34.70
2019-02-15T17:09:48.734Z,36.07
2019-02-15T17:12:19.020Z,35.07
2019-02-15T17:14:49.425Z,39.40
2019-02-15T17:17:21.480Z,38.03
2019-02-15T17:19:52.939Z,36.60
2019-02-15T17:22:24.448Z,39.90
2019-02-15T17:24:55.860Z,37.27
2019-02-15T17:27:27.297Z,34.43
2019-02-15T17:29:59.654Z,32.13
2019-02-15T17:32:30.208Z,34.63
2019-02-15T17:35:01.981Z,35.67
2019-02-15T17:37:37.760Z,34.70
2019-02-15T17:40:13.654Z,36.60
2019-02-15T17:42:44.052Z,38.20
2019-02-15T17:45:14.555Z,39.07
2019-02-15T17:47:45.958Z,34.50
2019-02-15T17:50:20.164Z,34.37
2019-02-15T17:52:51.659Z,38.73
2019-02-15T17:55:23.139Z,36.37
2019-02-15T17:57:54.963Z,42.93
2019-02-15T18:00:29.824Z,47.93
2019-02-15T18:03:02.256Z,38.80
2019-02-15T18:05:33.833Z,48.50
2019-02-15T18:08:05.296Z,44.07
2019-02-15T18:10:36.739Z,44.10
2019-02-15T18:13:08.319Z,46.43
2019-02-15T18:15:38.590Z,48.07
2019-02-15T18:18:10.059Z,44.97
2019-02-15T18:20:40.394Z,43.87
2019-02-15T18:23:10.667Z,41.70
2019-02-15T18:25:42.057Z,41.20
2019-02-15T18:28:15.569Z,41.57
2019-02-15T18:30:45.891Z,39.57
2019-02-15T18:33:16.176Z,34.73
2019-02-15T18:35:46.462Z,45.23
2019-02-15T18:38:16.763Z,44.30
2019-02-15T18:40:48.869Z,38.10
2019-02-15T18:43:20.374Z,35.93
2019-02-15T18:45:50.662Z,32.97
2019-02-15T18:48:23.503Z,33.00
2019-02-15T18:50:53.785Z,32.47
2019-02-15T18:53:26.313Z,35.63
2019-02-15T18:55:57.240Z,37.83
2019-02-15T18:58:27.506Z,39.07
2019-02-15T19:00:57.789Z,34.33
2019-02-15T19:03:38.155Z,36.30
2019-02-15T19:06:10.540Z,56.53
2019-02-15T19:08:56.629Z,43.07
2019-02-15T19:11:27.025Z,39.30
2019-02-15T19:13:57.799Z,38.20
2019-02-15T19:16:34.506Z,53.27
2019-02-15T19:19:12.540Z,56.03
2019-02-15T19:21:48.130Z,47.07
2019-02-15T19:24:21.424Z,51.57
2019-02-15T19:26:54.060Z,48.87
2019-02-15T19:29:28.288Z,49.33
2019-02-15T19:32:00.159Z,50.07
2019-02-15T19:34:30.529Z,47.83
2019-02-15T19:37:02.363Z,47.93
2019-02-15T19:39:32.703Z,51.07
2019-02-15T19:42:05.717Z,65.33
2019-02-15T19:44:36.232Z,53.97
2019-02-15T19:47:06.554Z,55.97
2019-02-15T19:49:43.513Z,65.13
2019-02-15T19:52:15.570Z,63.93
2019-02-15T19:54:47.495Z,59.10
2019-02-15T19:57:19.174Z,62.53
2019-02-15T20:00:06.605Z,62.80
2019-02-15T20:02:46.156Z,55.43
2019-02-15T20:05:17.025Z,67.60
2019-02-15T20:07:50.813Z,63.67
2019-02-15T20:10:23.310Z,58.73
2019-02-15T20:12:54.907Z,61.00
2019-02-15T20:15:27.117Z,51.50
2019-02-15T20:17:57.878Z,43.00
2019-02-15T20:20:29.895Z,46.67
2019-02-15T20:23:00.683Z,40.20
2019-02-15T20:25:31.030Z,36.87
2019-02-15T20:28:01.318Z,42.37
2019-02-15T20:30:31.674Z,44.70
2019-02-15T20:33:04.965Z,44.73
2019-02-15T20:35:36.138Z,53.33
2019-02-15T20:38:08.916Z,50.47
2019-02-15T20:40:39.466Z,42.93
2019-02-15T20:43:10.627Z,46.77
2019-02-15T20:45:43.536Z,39.37
2019-02-15T20:48:15.000Z,39.17
2019-02-15T20:50:46.934Z,40.30
2019-02-15T20:53:20.830Z,39.93
2019-02-15T20:55:54.627Z,49.23
2019-02-15T20:58:26.692Z,40.53
2019-02-15T21:00:58.199Z,52.17
2019-02-15T21:03:31.389Z,82.50
2019-02-15T21:06:02.819Z,71.10
2019-02-15T21:08:33.116Z,78.73
2019-02-15T21:11:05.658Z,58.33
2019-02-15T21:13:35.942Z,53.97
2019-02-15T21:16:06.457Z,52.57
2019-02-15T21:18:38.584Z,44.47
2019-02-15T21:21:08.863Z,40.67
2019-02-15T21:23:42.288Z,35.50
2019-02-15T21:26:26.978Z,35.20
2019-02-15T21:28:57.331Z,41.93
2019-02-15T21:31:27.607Z,48.03
2019-02-15T21:33:58.194Z,36.73
2019-02-15T21:36:28.459Z,37.90
2019-02-15T21:39:00.848Z,46.33
2019-02-15T21:41:32.728Z,31.53
2019-02-15T21:44:03.017Z,32.37
2019-02-15T21:46:33.268Z,26.63
2019-02-15T21:49:05.113Z,25.07
2019-02-15T21:51:37.775Z,25.60
2019-02-15T21:54:08.345Z,26.43
2019-02-15T21:56:41.105Z,31.43
2019-02-15T21:59:11.387Z,28.67
2019-02-15T22:01:41.653Z,28.13
2019-02-15T22:04:11.927Z,26.93
2019-02-15T22:06:44.081Z,25.37
2019-02-15T22:09:15.522Z,24.10
2019-02-15T22:11:45.771Z,20.83
2019-02-15T22:14:16.059Z,21.30
2019-02-15T22:16:46.315Z,21.20
2019-02-15T22:19:16.625Z,29.33
2019-02-15T22:21:46.898Z,28.53
2019-02-15T22:24:17.190Z,28.23
2019-02-15T22:26:47.446Z,31.37
2019-02-15T22:29:17.745Z,25.53
2019-02-15T22:31:48.082Z,24.77
2019-02-15T22:34:18.314Z,31.80
2019-02-15T22:36:50.110Z,27.17
2019-02-15T22:39:21.241Z,28.67
2019-02-15T22:41:51.505Z,28.40
2019-02-15T22:44:21.776Z,28.47
2019-02-15T22:46:52.039Z,27.00
2019-02-15T22:49:22.292Z,27.00
2019-02-15T22:51:52.551Z,29.37
2019-02-15T22:54:22.805Z,31.73
2019-02-15T22:56:53.129Z,29.17
2019-02-15T22:59:23.324Z,26.03
2019-02-15T23:01:53.585Z,25.13
2019-02-15T23:04:23.844Z,22.63
2019-02-15T23:06:54.104Z,23.70
2019-02-15T23:09:25.250Z,19.80
2019-02-15T23:11:55.526Z,18.87
2019-02-15T23:14:25.779Z,15.73
2019-02-15T23:16:56.060Z,19.50
2019-02-15T23:19:26.321Z,24.40
2019-02-15T23:21:56.588Z,19.10
2019-02-15T23:24:26.864Z,20.07
2019-02-15T23:26:57.131Z,19.00
2019-02-15T23:29:27.396Z,15.90
2019-02-15T23:31:57.654Z,16.80
2019-02-15T23:34:27.926Z,17.10
2019-02-15T23:36:58.183Z,16.07
2019-02-15T23:39:29.334Z,16.53
2019-02-15T23:41:59.597Z,15.97
2019-02-15T23:44:30.539Z,17.33
2019-02-15T23:47:00.800Z,17.47
2019-02-15T23:49:31.087Z,15.27
2019-02-15T23:52:01.345Z,16.83
2019-02-15T23:54:31.633Z,15.73
2019-02-15T23:57:01.887Z,15.03
2019-02-15T23:59:32.157Z,14.57
